sensor_id;sensor_type;location;lat;lon;timestamp;temperature;humidity
5960;DHT22;3006;50.956;7.002;2024-02-04T00:02:25;10.00;98.30
5960;DHT22;3006;50.956;7.002;2024-02-04T00:04:54;10.00;98.40
5960;DHT22;3006;50.956;7.002;2024-02-04T00:07:23;10.00;99.00
5960;DHT22;3006;50.956;7.002;2024-02-04T00:09:51;9.90;99.90
5960;DHT22;3006;50.956;7.002;2024-02-04T00:12:19;9.80;99.90
5960;DHT22;3006;50.956;7.002;2024-02-04T00:14:48;9.80;99.90
5960;DHT22;3006;50.956;7.002;2024-02-04T00:17:16;9.80;99.90
5960;DHT22;3006;50.956;7.002;2024-02-04T00:19:44;9.90;99.90
5960;DHT22;3006;50.956;7.002;2024-02-04T00:22:14;9.80;99.90
5960;DHT22;3006;50.956;7.002;2024-02-04T00:24:44;9.80;99.90
5960;DHT22;3006;50.956;7.002;2024-02-04T00:27:12;9.80;99.90
5960;DHT22;3006;50.956;7.002;2024-02-04T00:29:40;9.80;99.90
5960;DHT22;3006;50.956;7.002;2024-02-04T00:32:08;9.80;99.90
5960;DHT22;3006;50.956;7.002;2024-02-04T00:34:36;9.80;99.90
5960;DHT22;3006;50.956;7.002;2024-02-04T00:37:05;9.70;99.90
5960;DHT22;3006;50.956;7.002;2024-02-04T00:39:34;9.70;99.90
5960;DHT22;3006;50.956;7.002;2024-02-04T00:42:03;9.70;99.90
5960;DHT22;3006;50.956;7.002;2024-02-04T00:44:31;9.70;99.90
5960;DHT22;3006;50.956;7.002;2024-02-04T00:46:59;9.70;99.90
5960;DHT22;3006;50.956;7.002;2024-02-04T00:49:27;9.70;99.90
5960;DHT22;3006;50.956;7.002;2024-02-04T00:51:55;9.70;99.90
5960;DHT22;3006;50.956;7.002;2024-02-04T00:54:24;9.70;99.90
5960;DHT22;3006;50.956;7.002;2024-02-04T00:56:53;9.60;99.90
5960;DHT22;3006;50.956;7.002;2024-02-04T00:59:22;9.60;99.90
5960;DHT22;3006;50.956;7.002;2024-02-04T01:01:50;9.70;99.90
5960;DHT22;3006;50.956;7.002;2024-02-04T01:04:18;9.60;99.90
5960;DHT22;3006;50.956;7.002;2024-02-04T01:06:46;9.70;99.90
5960;DHT22;3006;50.956;7.002;2024-02-04T01:09:27;9.60;99.90
5960;DHT22;3006;50.956;7.002;2024-02-04T01:11:58;9.60;99.90
5960;DHT22;3006;50.956;7.002;2024-02-04T01:14:26;9.60;99.90
5960;DHT22;3006;50.956;7.002;2024-02-04T01:16:54;9.60;99.90
5960;DHT22;3006;50.956;7.002;2024-02-04T01:19:22;9.60;99.90
5960;DHT22;3006;50.956;7.002;2024-02-04T01:21:50;9.60;99.90
5960;DHT22;3006;50.956;7.002;2024-02-04T01:24:19;9.70;99.90
5960;DHT22;3006;50.956;7.002;2024-02-04T01:26:47;9.70;99.90
5960;DHT22;3006;50.956;7.002;2024-02-04T01:29:16;9.60;99.90
5960;DHT22;3006;50.956;7.002;2024-02-04T01:31:44;9.60;99.90
5960;DHT22;3006;50.956;7.002;2024-02-04T01:34:12;9.60;99.90
5960;DHT22;3006;50.956;7.002;2024-02-04T01:36:41;9.60;99.90
5960;DHT22;3006;50.956;7.002;2024-02-04T01:39:09;9.60;99.90
5960;DHT22;3006;50.956;7.002;2024-02-04T01:41:38;9.70;99.90
5960;DHT22;3006;50.956;7.002;2024-02-04T01:44:06;9.60;99.90
5960;DHT22;3006;50.956;7.002;2024-02-04T01:46:38;9.60;99.90
5960;DHT22;3006;50.956;7.002;2024-02-04T01:49:08;9.60;99.90
5960;DHT22;3006;50.956;7.002;2024-02-04T01:51:36;9.60;99.90
5960;DHT22;3006;50.956;7.002;2024-02-04T01:54:05;9.60;99.90
5960;DHT22;3006;50.956;7.002;2024-02-04T01:56:34;9.60;99.90
5960;DHT22;3006;50.956;7.002;2024-02-04T01:59:03;9.60;99.90
5960;DHT22;3006;50.956;7.002;2024-02-04T02:01:31;9.60;99.90
5960;DHT22;3006;50.956;7.002;2024-02-04T02:04:02;9.60;99.90
5960;DHT22;3006;50.956;7.002;2024-02-04T02:06:31;9.60;99.90
5960;DHT22;3006;50.956;7.002;2024-02-04T02:09:01;9.60;99.90
5960;DHT22;3006;50.956;7.002;2024-02-04T02:11:36;9.60;99.90
5960;DHT22;3006;50.956;7.002;2024-02-04T02:14:08;9.60;99.90
5960;DHT22;3006;50.956;7.002;2024-02-04T02:16:39;9.60;99.90
5960;DHT22;3006;50.956;7.002;2024-02-04T02:19:22;9.60;99.90
5960;DHT22;3006;50.956;7.002;2024-02-04T02:22:02;9.70;99.90
5960;DHT22;3006;50.956;7.002;2024-02-04T02:24:35;9.60;99.90
5960;DHT22;3006;50.956;7.002;2024-02-04T02:27:04;9.70;99.90
5960;DHT22;3006;50.956;7.002;2024-02-04T02:29:33;9.70;99.90
5960;DHT22;3006;50.956;7.002;2024-02-04T02:32:01;9.70;99.90
5960;DHT22;3006;50.956;7.002;2024-02-04T02:34:30;9.70;99.90
5960;DHT22;3006;50.956;7.002;2024-02-04T02:37:20;9.70;99.90
5960;DHT22;3006;50.956;7.002;2024-02-04T02:39:56;9.70;99.90
5960;DHT22;3006;50.956;7.002;2024-02-04T02:42:26;9.70;99.90
5960;DHT22;3006;50.956;7.002;2024-02-04T02:44:56;9.80;99.90
5960;DHT22;3006;50.956;7.002;2024-02-04T02:47:25;9.80;99.90
5960;DHT22;3006;50.956;7.002;2024-02-04T02:49:55;9.70;99.90
5960;DHT22;3006;50.956;7.002;2024-02-04T02:52:23;9.80;99.90
5960;DHT22;3006;50.956;7.002;2024-02-04T02:54:52;9.80;99.90
5960;DHT22;3006;50.956;7.002;2024-02-04T02:57:21;9.80;99.90
5960;DHT22;3006;50.956;7.002;2024-02-04T02:59:49;9.90;99.90
5960;DHT22;3006;50.956;7.002;2024-02-04T03:02:17;9.80;99.90
5960;DHT22;3006;50.956;7.002;2024-02-04T03:04:45;9.80;99.90
5960;DHT22;3006;50.956;7.002;2024-02-04T03:07:14;9.80;99.90
5960;DHT22;3006;50.956;7.002;2024-02-04T03:09:42;9.80;99.90
5960;DHT22;3006;50.956;7.002;2024-02-04T03:12:12;9.80;99.90
5960;DHT22;3006;50.956;7.002;2024-02-04T03:14:40;9.80;99.90
5960;DHT22;3006;50.956;7.002;2024-02-04T03:17:08;9.80;99.90
5960;DHT22;3006;50.956;7.002;2024-02-04T03:19:36;9.80;99.90
5960;DHT22;3006;50.956;7.002;2024-02-04T03:22:07;9.80;99.90
5960;DHT22;3006;50.956;7.002;2024-02-04T03:24:35;9.80;99.90
5960;DHT22;3006;50.956;7.002;2024-02-04T03:27:04;9.80;99.90
5960;DHT22;3006;50.956;7.002;2024-02-04T03:29:33;9.80;99.90
5960;DHT22;3006;50.956;7.002;2024-02-04T03:32:02;9.90;99.90
5960;DHT22;3006;50.956;7.002;2024-02-04T03:34:30;9.90;99.90
5960;DHT22;3006;50.956;7.002;2024-02-04T03:36:58;10.00;99.90
5960;DHT22;3006;50.956;7.002;2024-02-04T03:39:27;9.90;99.90
5960;DHT22;3006;50.956;7.002;2024-02-04T03:41:55;10.00;99.90
5960;DHT22;3006;50.956;7.002;2024-02-04T03:44:23;10.00;99.90
5960;DHT22;3006;50.956;7.002;2024-02-04T03:46:53;10.00;99.90
5960;DHT22;3006;50.956;7.002;2024-02-04T03:49:21;10.00;99.90
5960;DHT22;3006;50.956;7.002;2024-02-04T03:51:49;10.00;99.90
5960;DHT22;3006;50.956;7.002;2024-02-04T03:54:19;10.00;99.90
5960;DHT22;3006;50.956;7.002;2024-02-04T03:56:47;10.00;99.90
5960;DHT22;3006;50.956;7.002;2024-02-04T03:59:15;10.00;99.90
5960;DHT22;3006;50.956;7.002;2024-02-04T04:01:47;10.00;99.90
5960;DHT22;3006;50.956;7.002;2024-02-04T04:04:17;10.00;99.90
5960;DHT22;3006;50.956;7.002;2024-02-04T04:06:46;10.00;99.90
5960;DHT22;3006;50.956;7.002;2024-02-04T04:09:15;10.00;99.90
5960;DHT22;3006;50.956;7.002;2024-02-04T04:11:43;10.00;99.90
5960;DHT22;3006;50.956;7.002;2024-02-04T04:14:11;10.00;99.90
5960;DHT22;3006;50.956;7.002;2024-02-04T04:16:40;10.00;99.90
5960;DHT22;3006;50.956;7.002;2024-02-04T04:19:08;10.00;99.90
5960;DHT22;3006;50.956;7.002;2024-02-04T04:21:38;10.00;99.90
5960;DHT22;3006;50.956;7.002;2024-02-04T04:24:07;10.10;99.90
5960;DHT22;3006;50.956;7.002;2024-02-04T04:26:35;10.10;99.90
5960;DHT22;3006;50.956;7.002;2024-02-04T04:29:03;10.10;99.90
5960;DHT22;3006;50.956;7.002;2024-02-04T04:31:31;10.10;99.90
5960;DHT22;3006;50.956;7.002;2024-02-04T04:34:00;10.10;99.90
5960;DHT22;3006;50.956;7.002;2024-02-04T04:36:28;10.10;99.90
5960;DHT22;3006;50.956;7.002;2024-02-04T04:38:57;10.10;99.90
5960;DHT22;3006;50.956;7.002;2024-02-04T04:41:26;10.10;99.90
5960;DHT22;3006;50.956;7.002;2024-02-04T04:43:54;10.10;99.90
5960;DHT22;3006;50.956;7.002;2024-02-04T04:46:22;10.10;99.90
5960;DHT22;3006;50.956;7.002;2024-02-04T04:48:50;10.10;99.90
5960;DHT22;3006;50.956;7.002;2024-02-04T04:51:19;10.10;99.90
5960;DHT22;3006;50.956;7.002;2024-02-04T04:53:48;10.10;99.90
5960;DHT22;3006;50.956;7.002;2024-02-04T04:56:17;10.10;99.90
5960;DHT22;3006;50.956;7.002;2024-02-04T04:58:45;10.10;99.90
5960;DHT22;3006;50.956;7.002;2024-02-04T05:01:13;10.20;99.90
5960;DHT22;3006;50.956;7.002;2024-02-04T05:03:42;10.20;99.90
5960;DHT22;3006;50.956;7.002;2024-02-04T05:06:10;10.20;99.90
5960;DHT22;3006;50.956;7.002;2024-02-04T05:08:38;10.20;99.90
5960;DHT22;3006;50.956;7.002;2024-02-04T05:11:06;10.20;99.90
5960;DHT22;3006;50.956;7.002;2024-02-04T05:13:38;10.20;99.90
5960;DHT22;3006;50.956;7.002;2024-02-04T05:16:06;10.20;99.90
5960;DHT22;3006;50.956;7.002;2024-02-04T05:18:35;10.20;99.90
5960;DHT22;3006;50.956;7.002;2024-02-04T05:21:03;10.20;99.80
5960;DHT22;3006;50.956;7.002;2024-02-04T05:23:32;10.20;99.70
5960;DHT22;3006;50.956;7.002;2024-02-04T05:26:03;10.20;99.80
5960;DHT22;3006;50.956;7.002;2024-02-04T05:28:32;10.20;99.80
5960;DHT22;3006;50.956;7.002;2024-02-04T05:31:02;10.20;99.70
5960;DHT22;3006;50.956;7.002;2024-02-04T05:33:31;10.20;99.60
5960;DHT22;3006;50.956;7.002;2024-02-04T05:35:59;10.20;99.60
5960;DHT22;3006;50.956;7.002;2024-02-04T05:38:28;10.20;99.60
5960;DHT22;3006;50.956;7.002;2024-02-04T05:40:56;10.20;99.70
5960;DHT22;3006;50.956;7.002;2024-02-04T05:43:24;10.30;99.60
5960;DHT22;3006;50.956;7.002;2024-02-04T05:45:52;10.30;99.70
5960;DHT22;3006;50.956;7.002;2024-02-04T05:48:22;10.20;99.70
5960;DHT22;3006;50.956;7.002;2024-02-04T05:50:51;10.30;99.90
5960;DHT22;3006;50.956;7.002;2024-02-04T05:53:19;10.20;99.90
5960;DHT22;3006;50.956;7.002;2024-02-04T05:55:47;10.20;99.90
5960;DHT22;3006;50.956;7.002;2024-02-04T05:58:15;10.10;99.90
5960;DHT22;3006;50.956;7.002;2024-02-04T06:00:43;10.10;99.90
5960;DHT22;3006;50.956;7.002;2024-02-04T06:03:12;10.10;99.90
5960;DHT22;3006;50.956;7.002;2024-02-04T06:05:42;10.00;99.90
5960;DHT22;3006;50.956;7.002;2024-02-04T06:08:11;10.00;99.90
5960;DHT22;3006;50.956;7.002;2024-02-04T06:10:39;10.00;99.90
5960;DHT22;3006;50.956;7.002;2024-02-04T06:13:07;10.00;99.90
5960;DHT22;3006;50.956;7.002;2024-02-04T06:15:35;10.00;99.90
5960;DHT22;3006;50.956;7.002;2024-02-04T06:18:04;10.00;99.90
5960;DHT22;3006;50.956;7.002;2024-02-04T06:20:32;10.00;99.90
5960;DHT22;3006;50.956;7.002;2024-02-04T06:23:01;10.10;99.90
5960;DHT22;3006;50.956;7.002;2024-02-04T06:25:30;10.10;99.90
5960;DHT22;3006;50.956;7.002;2024-02-04T06:27:58;10.10;99.90
5960;DHT22;3006;50.956;7.002;2024-02-04T06:30:26;10.10;99.90
5960;DHT22;3006;50.956;7.002;2024-02-04T06:32:54;10.10;99.90
5960;DHT22;3006;50.956;7.002;2024-02-04T06:35:23;10.10;99.90
5960;DHT22;3006;50.956;7.002;2024-02-04T06:37:51;10.10;99.90
5960;DHT22;3006;50.956;7.002;2024-02-04T06:40:21;10.10;99.90
5960;DHT22;3006;50.956;7.002;2024-02-04T06:42:49;10.10;99.90
5960;DHT22;3006;50.956;7.002;2024-02-04T06:45:17;10.10;99.90
5960;DHT22;3006;50.956;7.002;2024-02-04T06:47:46;10.10;99.90
5960;DHT22;3006;50.956;7.002;2024-02-04T06:50:14;10.10;99.90
5960;DHT22;3006;50.956;7.002;2024-02-04T06:52:44;10.10;99.90
5960;DHT22;3006;50.956;7.002;2024-02-04T06:55:12;10.10;99.90
5960;DHT22;3006;50.956;7.002;2024-02-04T06:57:42;10.10;99.90
5960;DHT22;3006;50.956;7.002;2024-02-04T07:00:11;10.10;99.90
5960;DHT22;3006;50.956;7.002;2024-02-04T07:02:39;10.00;99.90
5960;DHT22;3006;50.956;7.002;2024-02-04T07:05:08;10.00;99.90
5960;DHT22;3006;50.956;7.002;2024-02-04T07:07:37;10.00;99.90
5960;DHT22;3006;50.956;7.002;2024-02-04T07:10:06;10.00;99.90
5960;DHT22;3006;50.956;7.002;2024-02-04T07:12:35;10.00;99.90
5960;DHT22;3006;50.956;7.002;2024-02-04T07:15:05;10.00;99.90
5960;DHT22;3006;50.956;7.002;2024-02-04T07:17:33;10.00;99.90
5960;DHT22;3006;50.956;7.002;2024-02-04T07:20:02;10.00;99.90
5960;DHT22;3006;50.956;7.002;2024-02-04T07:22:30;10.00;99.90
5960;DHT22;3006;50.956;7.002;2024-02-04T07:25:02;10.00;99.90
5960;DHT22;3006;50.956;7.002;2024-02-04T07:27:31;10.00;99.90
5960;DHT22;3006;50.956;7.002;2024-02-04T07:30:00;10.00;99.90
5960;DHT22;3006;50.956;7.002;2024-02-04T07:32:29;10.00;99.90
5960;DHT22;3006;50.956;7.002;2024-02-04T07:34:57;10.00;99.90
5960;DHT22;3006;50.956;7.002;2024-02-04T07:37:25;10.00;99.90
5960;DHT22;3006;50.956;7.002;2024-02-04T07:39:53;10.00;99.90
5960;DHT22;3006;50.956;7.002;2024-02-04T07:42:23;10.00;99.90
5960;DHT22;3006;50.956;7.002;2024-02-04T07:44:51;10.00;99.90
5960;DHT22;3006;50.956;7.002;2024-02-04T07:47:19;10.10;99.90
5960;DHT22;3006;50.956;7.002;2024-02-04T07:49:49;10.10;99.90
5960;DHT22;3006;50.956;7.002;2024-02-04T07:52:18;10.10;99.90
5960;DHT22;3006;50.956;7.002;2024-02-04T07:54:46;10.10;99.90
5960;DHT22;3006;50.956;7.002;2024-02-04T07:57:14;10.10;99.90
5960;DHT22;3006;50.956;7.002;2024-02-04T07:59:42;10.10;99.90
5960;DHT22;3006;50.956;7.002;2024-02-04T08:02:10;10.10;99.90
5960;DHT22;3006;50.956;7.002;2024-02-04T08:04:40;10.10;99.90
5960;DHT22;3006;50.956;7.002;2024-02-04T08:07:10;10.10;99.90
5960;DHT22;3006;50.956;7.002;2024-02-04T08:09:38;10.10;99.90
5960;DHT22;3006;50.956;7.002;2024-02-04T08:12:06;10.10;99.90
5960;DHT22;3006;50.956;7.002;2024-02-04T08:14:35;10.20;99.90
5960;DHT22;3006;50.956;7.002;2024-02-04T08:17:03;10.20;99.90
5960;DHT22;3006;50.956;7.002;2024-02-04T08:19:31;10.30;99.90
5960;DHT22;3006;50.956;7.002;2024-02-04T08:22:00;10.20;99.90
5960;DHT22;3006;50.956;7.002;2024-02-04T08:24:29;10.20;99.90
5960;DHT22;3006;50.956;7.002;2024-02-04T08:26:59;10.20;99.90
5960;DHT22;3006;50.956;7.002;2024-02-04T08:29:27;10.20;99.90
5960;DHT22;3006;50.956;7.002;2024-02-04T08:31:55;10.30;99.90
5960;DHT22;3006;50.956;7.002;2024-02-04T08:34:23;10.30;99.90
5960;DHT22;3006;50.956;7.002;2024-02-04T08:36:52;10.30;99.90
5960;DHT22;3006;50.956;7.002;2024-02-04T08:39:21;10.40;99.90
5960;DHT22;3006;50.956;7.002;2024-02-04T08:41:50;10.40;99.90
5960;DHT22;3006;50.956;7.002;2024-02-04T08:44:19;10.40;99.90
5960;DHT22;3006;50.956;7.002;2024-02-04T08:47:01;10.40;99.90
5960;DHT22;3006;50.956;7.002;2024-02-04T08:49:30;10.40;99.90
5960;DHT22;3006;50.956;7.002;2024-02-04T08:51:58;10.30;99.90
5960;DHT22;3006;50.956;7.002;2024-02-04T08:54:26;10.30;99.90
5960;DHT22;3006;50.956;7.002;2024-02-04T08:56:56;10.20;99.90
5960;DHT22;3006;50.956;7.002;2024-02-04T08:59:24;10.20;99.90
5960;DHT22;3006;50.956;7.002;2024-02-04T09:01:52;10.20;99.90
5960;DHT22;3006;50.956;7.002;2024-02-04T09:04:21;10.20;99.90
5960;DHT22;3006;50.956;7.002;2024-02-04T09:06:50;10.30;99.90
5960;DHT22;3006;50.956;7.002;2024-02-04T09:09:18;10.30;99.90
5960;DHT22;3006;50.956;7.002;2024-02-04T09:11:46;10.40;99.90
5960;DHT22;3006;50.956;7.002;2024-02-04T09:14:16;10.40;99.90
5960;DHT22;3006;50.956;7.002;2024-02-04T09:16:44;10.40;99.90
5960;DHT22;3006;50.956;7.002;2024-02-04T09:19:12;10.50;99.90
5960;DHT22;3006;50.956;7.002;2024-02-04T09:21:41;10.50;99.90
5960;DHT22;3006;50.956;7.002;2024-02-04T09:24:09;10.50;99.90
5960;DHT22;3006;50.956;7.002;2024-02-04T09:26:38;10.50;99.90
5960;DHT22;3006;50.956;7.002;2024-02-04T09:29:06;10.70;99.90
5960;DHT22;3006;50.956;7.002;2024-02-04T09:31:35;10.70;99.90
5960;DHT22;3006;50.956;7.002;2024-02-04T09:34:04;10.80;99.90
5960;DHT22;3006;50.956;7.002;2024-02-04T09:36:33;10.80;99.90
5960;DHT22;3006;50.956;7.002;2024-02-04T09:39:02;10.90;99.90
5960;DHT22;3006;50.956;7.002;2024-02-04T09:41:30;10.90;99.80
5960;DHT22;3006;50.956;7.002;2024-02-04T09:43:59;10.80;99.90
5960;DHT22;3006;50.956;7.002;2024-02-04T09:46:27;10.70;99.90
5960;DHT22;3006;50.956;7.002;2024-02-04T09:48:57;10.70;99.90
5960;DHT22;3006;50.956;7.002;2024-02-04T09:51:26;10.70;99.90
5960;DHT22;3006;50.956;7.002;2024-02-04T09:53:59;10.70;99.90
5960;DHT22;3006;50.956;7.002;2024-02-04T09:56:30;10.70;99.90
5960;DHT22;3006;50.956;7.002;2024-02-04T09:59:00;10.70;99.90
5960;DHT22;3006;50.956;7.002;2024-02-04T10:01:28;10.70;99.90
5960;DHT22;3006;50.956;7.002;2024-02-04T10:03:59;10.70;99.90
5960;DHT22;3006;50.956;7.002;2024-02-04T10:06:27;10.80;99.90
5960;DHT22;3006;50.956;7.002;2024-02-04T10:08:56;10.80;99.90
5960;DHT22;3006;50.956;7.002;2024-02-04T10:11:25;10.70;99.90
5960;DHT22;3006;50.956;7.002;2024-02-04T10:13:53;10.80;99.90
5960;DHT22;3006;50.956;7.002;2024-02-04T10:16:22;10.80;99.90
5960;DHT22;3006;50.956;7.002;2024-02-04T10:18:50;10.90;99.90
5960;DHT22;3006;50.956;7.002;2024-02-04T10:21:23;10.90;99.90
5960;DHT22;3006;50.956;7.002;2024-02-04T10:23:52;10.90;99.80
5960;DHT22;3006;50.956;7.002;2024-02-04T10:26:20;10.80;99.90
5960;DHT22;3006;50.956;7.002;2024-02-04T10:28:49;10.80;99.90
5960;DHT22;3006;50.956;7.002;2024-02-04T10:31:17;10.70;99.90
5960;DHT22;3006;50.956;7.002;2024-02-04T10:33:45;10.70;99.90
5960;DHT22;3006;50.956;7.002;2024-02-04T10:36:13;10.70;99.90
5960;DHT22;3006;50.956;7.002;2024-02-04T10:38:43;10.70;99.90
5960;DHT22;3006;50.956;7.002;2024-02-04T10:41:14;10.70;99.90
5960;DHT22;3006;50.956;7.002;2024-02-04T10:43:43;10.70;99.90
5960;DHT22;3006;50.956;7.002;2024-02-04T10:46:14;10.70;99.70
5960;DHT22;3006;50.956;7.002;2024-02-04T10:48:48;10.70;99.40
5960;DHT22;3006;50.956;7.002;2024-02-04T10:51:24;10.80;99.70
5960;DHT22;3006;50.956;7.002;2024-02-04T10:53:55;10.90;98.70
5960;DHT22;3006;50.956;7.002;2024-02-04T10:56:29;10.90;98.70
5960;DHT22;3006;50.956;7.002;2024-02-04T10:58:58;10.90;98.30
5960;DHT22;3006;50.956;7.002;2024-02-04T11:01:29;10.90;97.80
5960;DHT22;3006;50.956;7.002;2024-02-04T11:03:58;10.90;98.00
5960;DHT22;3006;50.956;7.002;2024-02-04T11:06:28;10.80;98.50
5960;DHT22;3006;50.956;7.002;2024-02-04T11:09:00;10.80;98.90
5960;DHT22;3006;50.956;7.002;2024-02-04T11:11:29;10.80;98.90
5960;DHT22;3006;50.956;7.002;2024-02-04T11:14:00;10.80;98.80
5960;DHT22;3006;50.956;7.002;2024-02-04T11:19:46;10.90;99.10
5960;DHT22;3006;50.956;7.002;2024-02-04T11:22:29;10.90;99.00
5960;DHT22;3006;50.956;7.002;2024-02-04T11:25:19;11.00;98.40
5960;DHT22;3006;50.956;7.002;2024-02-04T11:27:50;11.00;98.70
5960;DHT22;3006;50.956;7.002;2024-02-04T11:30:19;11.00;98.20
5960;DHT22;3006;50.956;7.002;2024-02-04T11:32:48;11.00;98.00
5960;DHT22;3006;50.956;7.002;2024-02-04T11:35:19;11.00;97.90
5960;DHT22;3006;50.956;7.002;2024-02-04T11:37:50;11.00;97.60
5960;DHT22;3006;50.956;7.002;2024-02-04T11:40:21;11.10;97.90
5960;DHT22;3006;50.956;7.002;2024-02-04T11:42:50;11.10;97.80
5960;DHT22;3006;50.956;7.002;2024-02-04T11:45:18;11.10;97.80
5960;DHT22;3006;50.956;7.002;2024-02-04T11:47:46;11.00;97.80
5960;DHT22;3006;50.956;7.002;2024-02-04T11:50:28;11.00;98.20
5960;DHT22;3006;50.956;7.002;2024-02-04T11:53:08;10.90;97.90
5960;DHT22;3006;50.956;7.002;2024-02-04T11:55:39;10.90;98.60
5960;DHT22;3006;50.956;7.002;2024-02-04T11:58:12;10.90;98.60
5960;DHT22;3006;50.956;7.002;2024-02-04T12:00:42;10.90;99.10
5960;DHT22;3006;50.956;7.002;2024-02-04T12:03:11;10.90;98.50
5960;DHT22;3006;50.956;7.002;2024-02-04T12:05:40;11.00;98.00
5960;DHT22;3006;50.956;7.002;2024-02-04T12:08:08;11.00;97.90
5960;DHT22;3006;50.956;7.002;2024-02-04T12:10:38;11.00;97.90
5960;DHT22;3006;50.956;7.002;2024-02-04T12:13:07;11.00;97.30
5960;DHT22;3006;50.956;7.002;2024-02-04T12:15:36;11.00;97.40
5960;DHT22;3006;50.956;7.002;2024-02-04T12:18:08;10.90;97.50
5960;DHT22;3006;50.956;7.002;2024-02-04T12:20:37;10.90;98.50
5960;DHT22;3006;50.956;7.002;2024-02-04T12:23:07;11.00;98.20
5960;DHT22;3006;50.956;7.002;2024-02-04T12:25:35;11.00;98.40
5960;DHT22;3006;50.956;7.002;2024-02-04T12:28:09;11.00;98.40
5960;DHT22;3006;50.956;7.002;2024-02-04T12:30:38;10.90;98.80
5960;DHT22;3006;50.956;7.002;2024-02-04T12:33:06;10.90;98.90
5960;DHT22;3006;50.956;7.002;2024-02-04T12:35:36;10.90;99.00
5960;DHT22;3006;50.956;7.002;2024-02-04T12:38:05;10.90;99.20
5960;DHT22;3006;50.956;7.002;2024-02-04T12:40:34;11.00;99.20
5960;DHT22;3006;50.956;7.002;2024-02-04T12:43:02;11.00;99.10
5960;DHT22;3006;50.956;7.002;2024-02-04T12:45:34;11.00;99.50
5960;DHT22;3006;50.956;7.002;2024-02-04T12:48:03;11.10;99.40
5960;DHT22;3006;50.956;7.002;2024-02-04T12:50:31;11.10;99.50
5960;DHT22;3006;50.956;7.002;2024-02-04T12:53:04;11.00;99.70
5960;DHT22;3006;50.956;7.002;2024-02-04T12:55:33;11.00;99.90
5960;DHT22;3006;50.956;7.002;2024-02-04T12:58:03;10.90;99.90
5960;DHT22;3006;50.956;7.002;2024-02-04T13:00:33;10.80;99.90
5960;DHT22;3006;50.956;7.002;2024-02-04T13:03:03;10.70;99.90
5960;DHT22;3006;50.956;7.002;2024-02-04T13:05:32;10.70;99.90
5960;DHT22;3006;50.956;7.002;2024-02-04T13:08:02;10.70;99.90
5960;DHT22;3006;50.956;7.002;2024-02-04T13:10:32;10.60;99.90
5960;DHT22;3006;50.956;7.002;2024-02-04T13:13:02;10.70;99.90
5960;DHT22;3006;50.956;7.002;2024-02-04T13:15:40;10.70;99.90
5960;DHT22;3006;50.956;7.002;2024-02-04T13:18:08;10.60;99.90
5960;DHT22;3006;50.956;7.002;2024-02-04T13:20:38;10.60;99.90
5960;DHT22;3006;50.956;7.002;2024-02-04T13:23:07;10.70;99.90
5960;DHT22;3006;50.956;7.002;2024-02-04T13:25:36;10.70;99.90
5960;DHT22;3006;50.956;7.002;2024-02-04T13:28:04;10.70;99.90
5960;DHT22;3006;50.956;7.002;2024-02-04T13:30:34;10.70;99.90
5960;DHT22;3006;50.956;7.002;2024-02-04T13:33:03;10.70;99.90
5960;DHT22;3006;50.956;7.002;2024-02-04T13:35:31;10.60;99.90
5960;DHT22;3006;50.956;7.002;2024-02-04T13:37:59;10.60;99.90
5960;DHT22;3006;50.956;7.002;2024-02-04T13:40:29;10.50;99.90
5960;DHT22;3006;50.956;7.002;2024-02-04T13:42:57;10.50;99.90
5960;DHT22;3006;50.956;7.002;2024-02-04T13:45:25;10.50;99.90
5960;DHT22;3006;50.956;7.002;2024-02-04T13:47:55;10.60;99.90
5960;DHT22;3006;50.956;7.002;2024-02-04T13:50:23;10.60;99.90
5960;DHT22;3006;50.956;7.002;2024-02-04T13:52:51;10.60;99.90
5960;DHT22;3006;50.956;7.002;2024-02-04T13:55:19;10.60;99.90
5960;DHT22;3006;50.956;7.002;2024-02-04T13:57:48;10.50;99.90
5960;DHT22;3006;50.956;7.002;2024-02-04T14:00:16;10.50;99.90
5960;DHT22;3006;50.956;7.002;2024-02-04T14:02:45;10.60;99.90
5960;DHT22;3006;50.956;7.002;2024-02-04T14:05:14;10.60;99.90
5960;DHT22;3006;50.956;7.002;2024-02-04T14:07:43;10.70;99.90
5960;DHT22;3006;50.956;7.002;2024-02-04T14:10:11;10.70;99.60
5960;DHT22;3006;50.956;7.002;2024-02-04T14:12:41;10.70;99.30
5960;DHT22;3006;50.956;7.002;2024-02-04T14:15:12;10.90;99.90
5960;DHT22;3006;50.956;7.002;2024-02-04T14:17:40;10.80;98.80
5960;DHT22;3006;50.956;7.002;2024-02-04T14:20:09;10.70;99.60
5960;DHT22;3006;50.956;7.002;2024-02-04T14:22:39;10.70;99.40
5960;DHT22;3006;50.956;7.002;2024-02-04T14:25:08;10.70;99.20
5960;DHT22;3006;50.956;7.002;2024-02-04T14:27:36;10.70;99.10
5960;DHT22;3006;50.956;7.002;2024-02-04T14:30:05;10.70;99.00
5960;DHT22;3006;50.956;7.002;2024-02-04T14:32:34;10.70;98.60
5960;DHT22;3006;50.956;7.002;2024-02-04T14:35:03;10.70;98.20
5960;DHT22;3006;50.956;7.002;2024-02-04T14:37:32;10.80;98.40
5960;DHT22;3006;50.956;7.002;2024-02-04T14:40:04;10.70;98.20
5960;DHT22;3006;50.956;7.002;2024-02-04T14:42:33;10.80;98.10
5960;DHT22;3006;50.956;7.002;2024-02-04T14:45:04;10.80;97.90
5960;DHT22;3006;50.956;7.002;2024-02-04T14:47:32;10.80;97.70
5960;DHT22;3006;50.956;7.002;2024-02-04T14:50:01;10.80;97.50
5960;DHT22;3006;50.956;7.002;2024-02-04T14:52:29;10.80;97.00
5960;DHT22;3006;50.956;7.002;2024-02-04T14:54:57;10.80;97.00
5960;DHT22;3006;50.956;7.002;2024-02-04T14:57:27;10.80;97.10
5960;DHT22;3006;50.956;7.002;2024-02-04T14:59:55;10.80;97.20
5960;DHT22;3006;50.956;7.002;2024-02-04T15:02:23;10.80;97.20
5960;DHT22;3006;50.956;7.002;2024-02-04T15:04:52;10.80;97.50
5960;DHT22;3006;50.956;7.002;2024-02-04T15:07:20;10.80;97.40
5960;DHT22;3006;50.956;7.002;2024-02-04T15:09:49;10.80;97.40
5960;DHT22;3006;50.956;7.002;2024-02-04T15:12:20;10.80;97.50
5960;DHT22;3006;50.956;7.002;2024-02-04T15:14:50;10.80;97.70
5960;DHT22;3006;50.956;7.002;2024-02-04T15:17:19;10.80;97.80
5960;DHT22;3006;50.956;7.002;2024-02-04T15:19:48;10.80;97.60
5960;DHT22;3006;50.956;7.002;2024-02-04T15:22:17;10.80;97.80
5960;DHT22;3006;50.956;7.002;2024-02-04T15:24:46;10.70;98.20
5960;DHT22;3006;50.956;7.002;2024-02-04T15:27:16;10.70;98.20
5960;DHT22;3006;50.956;7.002;2024-02-04T15:29:47;10.70;98.50
5960;DHT22;3006;50.956;7.002;2024-02-04T15:32:21;10.70;98.90
5960;DHT22;3006;50.956;7.002;2024-02-04T15:34:50;10.70;99.20
5960;DHT22;3006;50.956;7.002;2024-02-04T15:37:19;10.70;99.00
5960;DHT22;3006;50.956;7.002;2024-02-04T15:39:47;10.70;99.20
5960;DHT22;3006;50.956;7.002;2024-02-04T15:42:17;10.70;99.30
5960;DHT22;3006;50.956;7.002;2024-02-04T15:44:46;10.70;99.00
5960;DHT22;3006;50.956;7.002;2024-02-04T15:47:15;10.60;99.00
5960;DHT22;3006;50.956;7.002;2024-02-04T15:49:46;10.60;99.30
5960;DHT22;3006;50.956;7.002;2024-02-04T15:52:14;10.60;99.30
5960;DHT22;3006;50.956;7.002;2024-02-04T15:54:43;10.70;99.50
5960;DHT22;3006;50.956;7.002;2024-02-04T15:57:12;10.60;99.50
5960;DHT22;3006;50.956;7.002;2024-02-04T16:02:24;10.60;99.30
5960;DHT22;3006;50.956;7.002;2024-02-04T16:04:55;10.60;99.60
5960;DHT22;3006;50.956;7.002;2024-02-04T16:07:23;10.50;99.90
5960;DHT22;3006;50.956;7.002;2024-02-04T16:09:53;10.50;99.90
5960;DHT22;3006;50.956;7.002;2024-02-04T16:12:23;10.50;99.90
5960;DHT22;3006;50.956;7.002;2024-02-04T16:14:51;10.50;99.90
5960;DHT22;3006;50.956;7.002;2024-02-04T16:17:20;10.40;99.90
5960;DHT22;3006;50.956;7.002;2024-02-04T16:19:49;10.40;99.90
5960;DHT22;3006;50.956;7.002;2024-02-04T16:22:20;10.40;99.90
5960;DHT22;3006;50.956;7.002;2024-02-04T16:24:49;10.40;99.90